Time;durP1;ratioP1;P1;durP2;ratioP2;P2;SDS_P1;SDS_P2;PMS_P1;PMS_P2;Temp;Humidity;BMP_temperature;BMP_pressure;BME280_temperature;BME280_humidity;BME280_pressure;Samples;Min_cycle;Max_cycle;Signal;HPM_P1;HPM_P2
2022/08/27 00:00:45;;;;;;;4.32;2.20;;;28.90;73.60;;;;;;5050278;28;20043;-57
2022/08/27 00:03:12;;;;;;;2.55;1.80;;;28.90;73.60;;;;;;5049590;28;20056;-57
2022/08/27 00:05:39;;;;;;;3.38;2.00;;;28.90;73.60;;;;;;5050046;28;20031;-58
2022/08/27 00:08:07;;;;;;;2.50;1.80;;;28.90;73.60;;;;;;5049705;28;20060;-58
2022/08/27 00:10:34;;;;;;;2.20;1.77;;;28.90;73.60;;;;;;5050202;28;20048;-58
2022/08/27 00:13:00;;;;;;;3.17;2.53;;;28.90;73.60;;;;;;5065956;28;20567;-58
2022/08/27 00:15:27;;;;;;;3.03;1.90;;;28.90;73.60;;;;;;5038593;28;20021;-58
2022/08/27 00:17:52;;;;;;;2.63;2.03;;;28.90;73.60;;;;;;5035772;28;20032;-58
2022/08/27 00:20:21;;;;;;;2.47;1.90;;;28.90;73.70;;;;;;5036512;28;20029;-58
2022/08/27 00:22:47;;;;;;;3.30;2.22;;;29.00;73.70;;;;;;5036507;28;20028;-57
2022/08/27 00:25:13;;;;;;;2.60;1.80;;;28.90;73.70;;;;;;5036564;28;20033;-58
2022/08/27 00:27:39;;;;;;;2.53;1.80;;;29.00;73.70;;;;;;5036085;28;20847;-58
2022/08/27 00:30:09;;;;;;;2.80;1.90;;;29.00;73.70;;;;;;5035951;28;20036;-58
2022/08/27 00:32:35;;;;;;;2.60;1.70;;;29.00;73.70;;;;;;5052874;28;20039;-59
2022/08/27 00:35:01;;;;;;;2.60;1.45;;;29.00;73.70;;;;;;5052631;28;20025;-58
2022/08/27 00:37:27;;;;;;;3.45;1.90;;;29.00;73.70;;;;;;5036015;28;20028;-58
2022/08/27 00:39:54;;;;;;;2.55;2.15;;;29.00;73.70;;;;;;5036035;28;20028;-57
2022/08/27 00:42:21;;;;;;;2.40;1.70;;;29.00;73.80;;;;;;5036252;28;20025;-58
2022/08/27 00:44:47;;;;;;;2.40;1.52;;;29.00;73.80;;;;;;5036271;28;20029;-57
2022/08/27 00:47:21;;;;;;;2.45;2.10;;;29.00;73.80;;;;;;5035843;28;20036;-58
2022/08/27 00:49:53;;;;;;;2.80;1.60;;;29.00;73.80;;;;;;5052384;28;20425;-58
2022/08/27 00:52:21;;;;;;;5.18;1.80;;;29.00;73.80;;;;;;5036262;28;20032;-57
2022/08/27 00:54:51;;;;;;;3.83;1.90;;;29.00;73.90;;;;;;5035849;28;20059;-57
2022/08/27 00:57:17;;;;;;;2.53;1.70;;;29.00;73.90;;;;;;5035958;28;20029;-59
2022/08/27 00:59:43;;;;;;;2.17;1.92;;;29.00;73.90;;;;;;5051997;28;20029;-57
2022/08/27 01:04:41;;;;;;;5.38;2.00;;;29.00;73.90;;;;;;5051902;28;20029;-58
2022/08/27 01:07:08;;;;;;;4.78;1.90;;;29.00;73.90;;;;;;5035851;28;20025;-58
2022/08/27 01:09:36;;;;;;;2.25;1.85;;;29.00;73.90;;;;;;5035572;28;20063;-58
2022/08/27 01:12:03;;;;;;;2.20;1.75;;;29.00;73.90;;;;;;5035475;28;20451;-58
2022/08/27 01:14:29;;;;;;;2.67;1.80;;;29.00;73.90;;;;;;5035422;28;20154;-58
2022/08/27 01:16:58;;;;;;;2.10;1.48;;;29.00;73.90;;;;;;5051843;28;20021;-58
2022/08/27 01:19:28;;;;;;;2.22;1.70;;;29.00;73.90;;;;;;5035059;28;20029;-57
2022/08/27 01:22:01;;;;;;;4.35;1.60;;;29.00;73.90;;;;;;5035128;28;20094;-58
2022/08/27 01:24:30;;;;;;;2.35;1.85;;;29.00;73.90;;;;;;5035350;28;20025;-58
2022/08/27 01:26:58;;;;;;;2.88;1.83;;;29.00;74.00;;;;;;5034224;28;20032;-58
2022/08/27 01:29:25;;;;;;;2.35;1.70;;;29.00;74.00;;;;;;5035280;28;20029;-58
2022/08/27 01:31:51;;;;;;;2.20;1.60;;;29.00;74.00;;;;;;5034959;28;20394;-58
2022/08/27 01:34:16;;;;;;;3.28;1.70;;;29.00;74.00;;;;;;5034750;28;20045;-58
2022/08/27 01:36:42;;;;;;;2.33;1.70;;;29.00;74.00;;;;;;5035277;28;20150;-58
2022/08/27 01:39:08;;;;;;;2.30;1.90;;;29.00;74.00;;;;;;5034967;28;20043;-58
2022/08/27 01:41:34;;;;;;;2.35;1.60;;;29.00;74.00;;;;;;5034973;28;20021;-57
2022/08/27 01:44:00;;;;;;;2.80;1.77;;;29.00;74.00;;;;;;5037619;28;20457;-58
2022/08/27 01:46:27;;;;;;;2.13;1.42;;;29.00;74.00;;;;;;5035857;28;20028;-58
2022/08/27 01:48:54;;;;;;;3.60;1.70;;;29.00;74.00;;;;;;5034505;28;20487;-58
2022/08/27 01:51:21;;;;;;;2.47;1.52;;;29.00;74.00;;;;;;5051420;28;20028;-58
2022/08/27 01:53:47;;;;;;;2.58;2.03;;;29.00;74.00;;;;;;5034540;28;20044;-57
2022/08/27 01:56:14;;;;;;;1.73;1.30;;;29.00;74.00;;;;;;5051203;28;20108;-58
2022/08/27 01:58:40;;;;;;;1.95;1.45;;;29.00;74.00;;;;;;5034728;28;20112;-57
2022/08/27 02:01:10;;;;;;;2.42;1.63;;;29.00;74.00;;;;;;5034320;28;20036;-58
2022/08/27 02:03:36;;;;;;;2.58;1.70;;;29.00;74.00;;;;;;5034085;28;20053;-58
2022/08/27 02:06:07;;;;;;;4.50;1.50;;;29.00;74.00;;;;;;5034179;28;20034;-58
2022/08/27 02:08:32;;;;;;;2.17;1.60;;;29.00;74.00;;;;;;5034176;28;20036;-57
2022/08/27 02:10:59;;;;;;;1.60;1.40;;;29.00;74.10;;;;;;5050748;28;20021;-58
2022/08/27 02:13:26;;;;;;;2.45;1.77;;;29.00;74.10;;;;;;5050554;28;20044;-58
2022/08/27 02:15:53;;;;;;;1.60;1.50;;;29.00;74.10;;;;;;5034030;28;20429;-58
2022/08/27 02:18:19;;;;;;;1.90;1.70;;;29.00;74.10;;;;;;5034081;28;20406;-58
2022/08/27 02:20:47;;;;;;;3.00;2.03;;;29.00;74.10;;;;;;5050758;28;20057;-58
2022/08/27 02:23:14;;;;;;;2.22;1.80;;;29.00;74.10;;;;;;5050883;28;20462;-57
2022/08/27 02:25:41;;;;;;;2.15;1.80;;;29.00;74.10;;;;;;5050590;28;20107;-58
2022/08/27 02:28:07;;;;;;;1.70;1.50;;;29.10;74.10;;;;;;5034054;28;20496;-58
2022/08/27 02:30:34;;;;;;;2.88;1.80;;;29.00;74.20;;;;;;5050299;28;20017;-58
2022/08/27 02:33:03;;;;;;;2.75;1.88;;;29.10;74.20;;;;;;5050399;28;20099;-57
2022/08/27 02:35:31;;;;;;;1.73;1.25;;;29.00;74.20;;;;;;5034020;28;20559;-58
2022/08/27 02:37:58;;;;;;;1.70;1.52;;;29.00;74.20;;;;;;5033625;28;20470;-58
2022/08/27 02:40:25;;;;;;;2.17;1.60;;;29.00;74.20;;;;;;5050457;28;20045;-58
2022/08/27 02:42:51;;;;;;;2.22;1.90;;;29.10;74.20;;;;;;5033559;28;20048;-58
2022/08/27 02:45:19;;;;;;;1.40;1.30;;;29.10;74.10;;;;;;5033916;28;20127;-58
2022/08/27 02:47:46;;;;;;;2.85;1.73;;;29.00;74.10;;;;;;5033757;28;20028;-58
2022/08/27 02:50:13;;;;;;;2.58;1.52;;;29.00;74.20;;;;;;5050217;28;20136;-58
2022/08/27 02:52:39;;;;;;;2.05;1.67;;;29.00;74.10;;;;;;5033717;28;20054;-58
2022/08/27 02:55:05;;;;;;;2.95;1.70;;;29.10;74.20;;;;;;5050333;28;20416;-58
2022/08/27 02:57:34;;;;;;;1.85;1.42;;;29.00;74.10;;;;;;5049930;28;20064;-59
2022/08/27 03:00:00;;;;;;;1.88;1.58;;;29.00;74.20;;;;;;5033533;28;20025;-57
2022/08/27 03:02:25;;;;;;;3.30;1.63;;;29.00;74.20;;;;;;5050098;28;20045;-58
2022/08/27 03:04:52;;;;;;;4.45;1.73;;;29.10;74.20;;;;;;5049865;28;20021;-58
2022/08/27 03:07:18;;;;;;;2.08;1.40;;;29.10;74.20;;;;;;5050355;28;20021;-58
2022/08/27 03:09:44;;;;;;;1.80;1.42;;;29.00;74.20;;;;;;5033138;28;20060;-58
2022/08/27 03:12:10;;;;;;;2.30;1.60;;;29.10;74.20;;;;;;5033305;28;20045;-58
2022/08/27 03:14:36;;;;;;;1.90;1.50;;;29.00;74.20;;;;;;5033629;28;20032;-58
2022/08/27 03:19:31;;;;;;;2.38;1.40;;;29.00;74.20;;;;;;5033789;28;20040;-58
2022/08/27 03:21:57;;;;;;;2.95;1.58;;;29.10;74.20;;;;;;5033080;28;20112;-58
2022/08/27 03:24:22;;;;;;;1.63;1.52;;;29.10;74.20;;;;;;5033441;28;20022;-57
2022/08/27 03:26:48;;;;;;;2.10;1.52;;;29.10;74.20;;;;;;5033282;28;20059;-58
2022/08/27 03:29:14;;;;;;;2.33;1.50;;;29.00;74.20;;;;;;5033470;28;20029;-58
2022/08/27 03:31:40;;;;;;;2.22;1.40;;;29.00;74.20;;;;;;5033286;28;20067;-58
2022/08/27 03:34:08;;;;;;;1.70;1.40;;;29.00;74.20;;;;;;5033327;28;20429;-58
2022/08/27 03:36:34;;;;;;;2.30;1.48;;;29.00;74.20;;;;;;5033625;28;20075;-58
2022/08/27 03:39:00;;;;;;;2.00;1.38;;;29.10;74.20;;;;;;5033278;28;20046;-58
2022/08/27 03:41:26;;;;;;;1.88;1.40;;;29.00;74.10;;;;;;5033231;28;20029;-57
2022/08/27 03:43:52;;;;;;;2.75;1.50;;;29.10;74.10;;;;;;5032941;28;20045;-58
2022/08/27 03:46:19;;;;;;;1.67;1.42;;;29.00;74.10;;;;;;5033210;28;20518;-57
2022/08/27 03:48:46;;;;;;;1.80;1.50;;;29.00;74.10;;;;;;5033324;28;20021;-58
2022/08/27 03:51:14;;;;;;;2.60;1.80;;;29.00;74.20;;;;;;5053072;28;20112;-58
2022/08/27 03:53:42;;;;;;;1.67;1.25;;;29.00;74.20;;;;;;5036867;28;20040;-58
2022/08/27 03:56:09;;;;;;;2.17;1.52;;;29.00;74.10;;;;;;5036882;28;20595;-58
2022/08/27 03:58:37;;;;;;;2.20;1.30;;;29.00;74.20;;;;;;5037004;28;20021;-58
2022/08/27 04:01:04;;;;;;;1.88;1.60;;;29.00;74.10;;;;;;5036885;28;20021;-58
2022/08/27 04:03:31;;;;;;;3.47;1.30;;;29.00;74.20;;;;;;5036503;28;20061;-58
2022/08/27 04:05:58;;;;;;;2.25;1.40;;;29.00;74.20;;;;;;5036247;28;20028;-57
2022/08/27 04:08:25;;;;;;;1.70;1.60;;;29.00;74.10;;;;;;5053047;28;20090;-58
2022/08/27 04:10:53;;;;;;;2.20;1.65;;;29.00;74.20;;;;;;5053197;28;20378;-58
2022/08/27 04:13:20;;;;;;;1.90;1.52;;;29.10;74.20;;;;;;5036886;28;20041;-58
2022/08/27 04:15:49;;;;;;;2.20;1.40;;;29.00;74.20;;;;;;5036265;28;20017;-57
2022/08/27 04:18:16;;;;;;;2.25;1.88;;;29.00;74.20;;;;;;5036183;28;20591;-58
2022/08/27 04:20:46;;;;;;;3.13;2.05;;;29.00;74.10;;;;;;5052783;28;20124;-58
2022/08/27 04:23:12;;;;;;;1.95;1.15;;;29.00;74.10;;;;;;5036370;28;20029;-58
2022/08/27 04:25:41;;;;;;;1.40;1.30;;;29.00;74.10;;;;;;5036324;28;20033;-58
2022/08/27 04:28:08;;;;;;;1.80;1.55;;;29.00;74.10;;;;;;5036385;28;20029;-57
2022/08/27 04:30:37;;;;;;;2.50;1.83;;;29.00;74.10;;;;;;5036839;28;20021;-58
2022/08/27 04:33:03;;;;;;;1.88;1.50;;;29.00;74.10;;;;;;5036189;28;20043;-58
2022/08/27 04:35:29;;;;;;;2.30;1.35;;;29.00;74.10;;;;;;5036064;28;20107;-58
2022/08/27 04:37:56;;;;;;;1.88;1.30;;;29.00;74.10;;;;;;5035959;28;20075;-58
2022/08/27 04:41:18;;;;;;;1.63;1.33;;;29.00;74.10;;;;;;5036267;28;20116;-58
2022/08/27 04:43:08;;;;;;;2.35;1.60;;;29.00;74.10;;;;;;5039122;28;20569;-58
2022/08/27 04:45:43;;;;;;;2.75;1.70;;;29.00;74.10;;;;;;5052406;28;20052;-58
2022/08/27 04:48:10;;;;;;;2.63;1.63;;;29.00;74.10;;;;;;5052621;28;20028;-58
2022/08/27 04:50:41;;;;;;;1.90;1.50;;;29.00;74.10;;;;;;5035983;28;20429;-58
2022/08/27 04:53:09;;;;;;;2.33;1.50;;;29.00;74.10;;;;;;5052330;28;20037;-58
2022/08/27 04:55:41;;;;;;;1.60;1.42;;;29.00;74.10;;;;;;5035670;28;20025;-58
2022/08/27 04:58:07;;;;;;;1.27;1.10;;;29.00;74.10;;;;;;5035580;28;20013;-57
2022/08/27 05:00:39;;;;;;;2.05;1.40;;;29.00;74.10;;;;;;5031880;28;20474;-57
2022/08/27 05:03:05;;;;;;;2.22;1.48;;;29.00;74.10;;;;;;5293975;22;20108;-59
2022/08/27 05:05:31;;;;;;;2.35;1.40;;;29.00;74.10;;;;;;5036577;28;20553;-59
2022/08/27 05:07:57;;;;;;;1.90;1.50;;;29.00;74.10;;;;;;5036757;28;20121;-60
2022/08/27 05:10:23;;;;;;;1.75;1.42;;;29.00;74.10;;;;;;5036505;28;20040;-59
2022/08/27 05:12:49;;;;;;;2.88;1.25;;;29.00;74.10;;;;;;5036353;28;20033;-60
2022/08/27 05:15:15;;;;;;;2.60;1.50;;;29.00;74.10;;;;;;5035885;28;20025;-60
2022/08/27 05:17:42;;;;;;;1.65;1.30;;;29.00;74.10;;;;;;5036101;28;20021;-59
2022/08/27 05:20:10;;;;;;;2.22;1.42;;;29.00;74.10;;;;;;5036260;28;20039;-59
2022/08/27 05:22:36;;;;;;;2.67;1.42;;;29.00;74.10;;;;;;5036403;28;20048;-58
2022/08/27 05:25:02;;;;;;;1.52;1.38;;;29.00;74.10;;;;;;5036318;28;20057;-59
2022/08/27 05:27:28;;;;;;;1.13;1.02;;;29.00;74.10;;;;;;5052817;28;20063;-59
2022/08/27 05:29:54;;;;;;;2.47;1.20;;;29.00;74.10;;;;;;5019736;28;20021;-59
2022/08/27 05:32:20;;;;;;;1.83;1.45;;;29.00;74.10;;;;;;5036078;28;20470;-59
2022/08/27 05:34:46;;;;;;;1.58;1.13;;;29.00;74.10;;;;;;5035636;28;20025;-59
2022/08/27 05:37:13;;;;;;;1.73;1.63;;;29.00;74.10;;;;;;5036172;28;20243;-60
2022/08/27 05:39:38;;;;;;;1.80;1.40;;;29.00;74.10;;;;;;5052516;28;20032;-59
2022/08/27 05:42:05;;;;;;;2.65;1.55;;;29.00;74.10;;;;;;5035235;28;20025;-59
2022/08/27 05:44:31;;;;;;;2.20;1.45;;;29.00;74.10;;;;;;5034707;28;20064;-60
2022/08/27 05:46:57;;;;;;;2.20;1.88;;;29.00;74.10;;;;;;5034545;28;20025;-59
2022/08/27 05:49:23;;;;;;;3.10;1.50;;;29.00;74.10;;;;;;5034481;28;20048;-59
2022/08/27 05:51:49;;;;;;;1.90;1.70;;;29.00;74.10;;;;;;5018487;28;20027;-59
2022/08/27 05:54:18;;;;;;;1.60;1.42;;;29.00;74.10;;;;;;5051215;28;20045;-59
2022/08/27 05:56:45;;;;;;;2.38;1.85;;;29.00;74.10;;;;;;5051021;28;20024;-59
2022/08/27 06:01:44;;;;;;;2.00;1.40;;;29.00;74.00;;;;;;5035335;28;20466;-59
2022/08/27 06:04:11;;;;;;;1.92;1.48;;;29.00;74.00;;;;;;5050809;28;20053;-60
2022/08/27 06:06:40;;;;;;;1.90;1.30;;;29.00;74.00;;;;;;5017811;28;20070;-60
2022/08/27 06:09:08;;;;;;;1.58;1.20;;;29.00;74.00;;;;;;5034314;28;20032;-59
2022/08/27 06:11:35;;;;;;;1.65;1.33;;;29.00;73.90;;;;;;5034471;28;20119;-60
2022/08/27 06:14:01;;;;;;;1.92;1.42;;;29.00;73.90;;;;;;5034152;28;20056;-59
2022/08/27 06:16:27;;;;;;;1.50;1.40;;;29.00;73.90;;;;;;5034298;28;20021;-59
2022/08/27 06:18:53;;;;;;;2.17;1.40;;;29.00;73.80;;;;;;5034216;28;20040;-59
2022/08/27 06:21:21;;;;;;;1.75;1.50;;;29.00;73.80;;;;;;5050412;28;20049;-59
2022/08/27 06:23:47;;;;;;;2.42;1.35;;;29.00;73.80;;;;;;5034249;28;20025;-60
2022/08/27 06:26:16;;;;;;;2.53;1.30;;;29.00;73.80;;;;;;5017758;28;20032;-60
2022/08/27 06:28:43;;;;;;;1.88;1.25;;;29.00;73.70;;;;;;5017807;28;20075;-59
2022/08/27 06:31:14;;;;;;;1.52;1.20;;;29.00;73.70;;;;;;5018037;28;20186;-59
2022/08/27 06:33:42;;;;;;;2.47;1.50;;;29.00;73.70;;;;;;5034427;28;20079;-60
2022/08/27 06:36:12;;;;;;;2.13;1.83;;;29.00;73.60;;;;;;5050559;28;20025;-60
2022/08/27 06:38:39;;;;;;;1.73;1.40;;;29.00;73.60;;;;;;5017677;28;20027;-59
2022/08/27 06:41:08;;;;;;;2.58;1.40;;;29.00;73.50;;;;;;5034242;28;20036;-60
2022/08/27 06:43:35;;;;;;;2.05;1.35;;;29.00;73.50;;;;;;5033446;28;20027;-60
2022/08/27 06:46:04;;;;;;;2.38;1.42;;;29.00;73.50;;;;;;5033938;28;20074;-59
2022/08/27 06:48:30;;;;;;;1.73;1.20;;;29.00;73.50;;;;;;5033704;28;20067;-60
2022/08/27 06:50:56;;;;;;;1.67;1.58;;;29.00;73.50;;;;;;5050394;28;20075;-59
2022/08/27 06:53:22;;;;;;;2.83;1.35;;;29.00;73.50;;;;;;5017230;28;20037;-60
2022/08/27 06:55:49;;;;;;;1.80;1.30;;;29.00;73.50;;;;;;5033649;28;20436;-60
2022/08/27 06:58:17;;;;;;;1.70;1.30;;;29.00;73.50;;;;;;5033878;28;20028;-60
2022/08/27 07:00:43;;;;;;;1.35;1.20;;;29.00;73.50;;;;;;5033547;28;20032;-59
2022/08/27 07:03:10;;;;;;;1.92;1.50;;;29.00;73.40;;;;;;5033433;28;20053;-60
2022/08/27 07:05:39;;;;;;;1.75;1.08;;;29.00;73.40;;;;;;5033868;28;20021;-60
2022/08/27 07:08:07;;;;;;;1.77;1.20;;;29.00;73.50;;;;;;5050028;28;20032;-59
2022/08/27 07:10:33;;;;;;;2.28;1.48;;;29.00;73.40;;;;;;5017064;28;20032;-59
2022/08/27 07:13:01;;;;;;;1.85;1.40;;;29.00;73.40;;;;;;5033713;28;20470;-59
2022/08/27 07:15:27;;;;;;;2.00;1.27;;;29.00;73.40;;;;;;5033646;28;20024;-59
2022/08/27 07:17:53;;;;;;;3.22;1.45;;;29.00;73.40;;;;;;5016992;28;20107;-60
2022/08/27 07:20:20;;;;;;;1.60;1.20;;;29.00;73.40;;;;;;5049998;28;20022;-60
2022/08/27 07:22:47;;;;;;;1.73;1.42;;;29.00;73.40;;;;;;5049972;28;20021;-60
2022/08/27 07:25:18;;;;;;;1.60;1.20;;;29.00;73.40;;;;;;5035545;28;20149;-60
2022/08/27 07:27:47;;;;;;;1.85;1.40;;;29.00;73.40;;;;;;5038189;28;20451;-59
2022/08/27 07:30:15;;;;;;;2.03;1.30;;;29.00;73.40;;;;;;5053612;28;20033;-60
2022/08/27 07:32:43;;;;;;;1.92;1.50;;;29.00;73.40;;;;;;5053744;28;20425;-60
2022/08/27 07:35:10;;;;;;;2.33;1.58;;;29.00;73.40;;;;;;5053884;28;20032;-59
2022/08/27 07:37:38;;;;;;;2.42;1.58;;;29.00;73.40;;;;;;5037097;28;20469;-60
2022/08/27 07:40:06;;;;;;;2.28;1.25;;;29.00;73.40;;;;;;5037302;28;20021;-60
2022/08/27 07:45:02;;;;;;;1.58;1.20;;;29.00;73.40;;;;;;5021992;28;20397;-60
2022/08/27 07:47:27;;;;;;;1.75;1.58;;;29.00;73.40;;;;;;5037374;28;20466;-59
2022/08/27 07:49:53;;;;;;;1.85;1.52;;;29.00;73.40;;;;;;5020413;28;20033;-59
2022/08/27 07:52:19;;;;;;;2.10;1.40;;;29.00;73.40;;;;;;5020315;28;20052;-60
2022/08/27 07:54:46;;;;;;;2.10;1.60;;;29.00;73.40;;;;;;5053261;28;20533;-60
2022/08/27 07:57:12;;;;;;;1.48;1.17;;;29.00;73.40;;;;;;5020645;28;20031;-60
2022/08/27 07:59:38;;;;;;;2.22;1.50;;;29.00;73.40;;;;;;5036648;28;20017;-60
2022/08/27 08:02:04;;;;;;;1.92;1.30;;;29.00;73.40;;;;;;5020061;28;20025;-60
2022/08/27 08:04:30;;;;;;;4.80;1.50;;;29.00;73.40;;;;;;5019831;28;20405;-60
2022/08/27 08:06:56;;;;;;;2.85;1.60;;;29.00;73.40;;;;;;5052958;28;20025;-59
2022/08/27 08:09:22;;;;;;;2.20;1.63;;;29.00;73.30;;;;;;5036570;28;20368;-59
2022/08/27 08:11:50;;;;;;;1.50;1.30;;;29.00;73.30;;;;;;5020344;28;20067;-59
2022/08/27 08:14:17;;;;;;;2.28;1.70;;;29.00;73.30;;;;;;5036629;28;20033;-60
2022/08/27 08:16:43;;;;;;;2.88;1.95;;;29.00;73.20;;;;;;5019861;28;20090;-60
2022/08/27 08:19:09;;;;;;;2.92;1.98;;;29.00;73.20;;;;;;5053177;28;20040;-60
2022/08/27 08:21:36;;;;;;;2.65;1.90;;;29.00;73.10;;;;;;5036282;28;20032;-59
2022/08/27 08:24:03;;;;;;;2.08;1.70;;;29.00;73.20;;;;;;5036532;28;20025;-60
2022/08/27 08:26:28;;;;;;;2.20;1.58;;;29.00;73.10;;;;;;5036069;28;20078;-60
2022/08/27 08:28:54;;;;;;;2.55;1.30;;;29.00;73.20;;;;;;5036067;28;20116;-59
2022/08/27 08:31:22;;;;;;;2.85;1.75;;;29.00;73.10;;;;;;5036087;28;20036;-59
2022/08/27 08:33:49;;;;;;;2.25;1.65;;;29.00;73.20;;;;;;5036368;28;20036;-60
2022/08/27 08:36:16;;;;;;;2.80;1.75;;;29.00;73.30;;;;;;5052327;28;20182;-59
2022/08/27 08:38:43;;;;;;;3.30;1.27;;;29.00;73.30;;;;;;5019332;28;20028;-60
2022/08/27 08:41:15;;;;;;;3.47;1.70;;;29.00;73.30;;;;;;5019796;28;20032;-59
2022/08/27 08:43:50;;;;;;;1.80;1.60;;;29.00;73.30;;;;;;5020278;28;20021;-58
2022/08/27 08:46:26;;;;;;;;;;;29.00;73.30;;;;;;5019380;28;20033;-59
2022/08/27 08:48:59;;;;;;;4.03;2.10;;;29.00;71.80;;;;;;5052419;28;19905;-57
2022/08/27 08:51:31;;;;;;;4.43;2.20;;;29.10;70.80;;;;;;5035819;28;20029;-57
2022/08/27 08:54:02;;;;;;;4.35;2.08;;;29.10;70.10;;;;;;5036138;28;20083;-58
2022/08/27 08:56:36;;;;;;;5.13;2.00;;;29.10;68.80;;;;;;5035721;28;20048;-58
2022/08/27 08:59:15;;;;;;;3.33;2.10;;;29.10;69.10;;;;;;5036039;28;20064;-60
2022/08/27 09:01:42;;;;;;;4.35;2.30;;;29.20;68.70;;;;;;5035187;28;20411;-56
2022/08/27 09:04:10;;;;;;;6.53;2.85;;;29.20;68.20;;;;;;5035149;28;20048;-57
2022/08/27 09:06:43;;;;;;;6.30;2.95;;;29.30;68.00;;;;;;5035449;28;20025;-56
2022/08/27 09:09:18;;;;;;;4.63;2.58;;;29.30;68.10;;;;;;5034947;28;20025;-57
2022/08/27 09:11:55;;;;;;;6.70;2.50;;;29.30;68.40;;;;;;5035053;28;20033;-57
2022/08/27 09:14:27;;;;;;;4.40;2.35;;;29.30;68.70;;;;;;5034506;28;20044;-57
2022/08/27 09:16:53;;;;;;;3.97;2.35;;;29.30;68.90;;;;;;5034663;28;20025;-58
2022/08/27 09:19:20;;;;;;;4.90;2.60;;;29.30;69.20;;;;;;5035101;28;20055;-57
2022/08/27 09:21:55;;;;;;;4.10;2.20;;;29.30;69.30;;;;;;5034604;28;20025;-57
2022/08/27 09:24:31;;;;;;;3.63;2.60;;;29.20;69.40;;;;;;5034049;28;20032;-57
2022/08/27 09:26:57;;;;;;;5.45;2.72;;;29.20;69.60;;;;;;5034959;28;20390;-57
2022/08/27 09:29:28;;;;;;;3.60;2.42;;;29.20;69.70;;;;;;5035002;28;20032;-57
2022/08/27 09:31:57;;;;;;;5.00;2.40;;;29.20;69.90;;;;;;5035108;28;20071;-57
2022/08/27 09:34:26;;;;;;;2.90;2.15;;;29.20;70.00;;;;;;5035171;28;20041;-58
2022/08/27 09:36:56;;;;;;;2.83;2.10;;;29.20;70.10;;;;;;5035168;28;20079;-57
2022/08/27 09:39:32;;;;;;;5.15;2.25;;;29.20;70.30;;;;;;5034817;28;20413;-57
2022/08/27 09:42:01;;;;;;;4.80;2.28;;;29.20;70.30;;;;;;5034872;28;20037;-58
2022/08/27 09:44:26;;;;;;;5.65;2.38;;;29.20;70.40;;;;;;5051218;28;20025;-57
2022/08/27 09:46:56;;;;;;;3.95;2.55;;;29.20;70.50;;;;;;5033717;28;20083;-57
2022/08/27 09:49:23;;;;;;;2.88;2.22;;;29.20;70.60;;;;;;5051305;28;20032;-57
2022/08/27 09:51:50;;;;;;;5.13;2.17;;;29.20;70.70;;;;;;5035162;28;20421;-57
2022/08/27 09:54:30;;;;;;;2.75;2.38;;;29.20;70.70;;;;;;5051660;28;20044;-59
2022/08/27 09:56:57;;;;;;;3.30;2.10;;;29.20;70.70;;;;;;5035540;28;20025;-57
2022/08/27 09:59:31;;;;;;;3.88;2.10;;;29.20;70.80;;;;;;5035740;28;20374;-57
2022/08/27 10:02:06;;;;;;;3.35;2.20;;;29.20;71.00;;;;;;5052019;28;20025;-57
2022/08/27 10:04:37;;;;;;;3.17;2.17;;;29.20;71.00;;;;;;5035211;28;20052;-57
2022/08/27 10:07:09;;;;;;;5.10;2.40;;;29.20;71.00;;;;;;5035131;28;20436;-57
2022/08/27 10:09:42;;;;;;;2.78;1.83;;;29.20;71.10;;;;;;5035321;28;20030;-57
2022/08/27 10:12:17;;;;;;;2.35;2.03;;;29.20;71.10;;;;;;5052175;28;20021;-57
2022/08/27 10:14:45;;;;;;;;;;;29.20;71.20;;;;;;5035852;28;20099;-57
2022/08/27 10:17:17;;;;;;;4.82;2.58;;;29.20;71.20;;;;;;5034934;28;19905;-57
2022/08/27 10:19:58;;;;;;;4.05;2.17;;;29.20;71.20;;;;;;5035098;28;20024;-57
2022/08/27 10:22:24;;;;;;;3.30;2.40;;;29.20;71.30;;;;;;5051684;28;20120;-57
2022/08/27 10:25:02;;;;;;;3.08;1.88;;;29.20;71.30;;;;;;5035508;28;20116;-57
2022/08/27 10:27:31;;;;;;;2.50;2.10;;;29.20;71.40;;;;;;5036416;28;20127;-58
2022/08/27 10:30:03;;;;;;;2.50;2.08;;;29.20;71.40;;;;;;5035075;28;20076;-57
2022/08/27 10:32:32;;;;;;;3.53;2.03;;;29.20;71.50;;;;;;5035166;28;20025;-57
2022/08/27 10:35:01;;;;;;;5.28;2.88;;;29.20;71.50;;;;;;5035199;28;20021;-57
2022/08/27 10:37:41;;;;;;;4.00;2.30;;;29.20;71.50;;;;;;5035125;28;20028;-57
2022/08/27 10:40:08;;;;;;;2.83;1.80;;;29.20;71.60;;;;;;5035215;28;20029;-57
2022/08/27 10:42:41;;;;;;;4.72;2.15;;;29.20;71.60;;;;;;5035085;28;20021;-57
2022/08/27 10:45:12;;;;;;;5.20;2.25;;;29.20;71.60;;;;;;5034507;28;20021;-58
2022/08/27 10:47:44;;;;;;;3.35;2.15;;;29.20;71.60;;;;;;5035162;28;20021;-57
2022/08/27 10:50:17;;;;;;;2.72;2.15;;;29.20;71.60;;;;;;5035058;28;20025;-57
2022/08/27 10:52:47;;;;;;;4.40;2.17;;;29.20;71.70;;;;;;5034793;28;20619;-57
2022/08/27 10:55:20;;;;;;;3.05;2.50;;;29.20;71.70;;;;;;5035368;28;20124;-57
2022/08/27 10:57:47;;;;;;;3.03;2.38;;;29.20;71.70;;;;;;5035131;28;20116;-57
2022/08/27 11:00:19;;;;;;;2.47;1.95;;;29.20;71.70;;;;;;5034731;28;20086;-57
2022/08/27 11:02:52;;;;;;;3.22;2.20;;;29.20;71.70;;;;;;5034725;28;20025;-58
2022/08/27 11:05:25;;;;;;;2.95;2.30;;;29.20;71.70;;;;;;5034216;28;20053;-57
2022/08/27 11:08:02;;;;;;;3.72;2.10;;;29.20;71.70;;;;;;5034615;28;20500;-57
2022/08/27 11:10:33;;;;;;;3.70;2.35;;;29.20;71.70;;;;;;5034675;28;20017;-57
2022/08/27 11:13:05;;;;;;;2.60;1.92;;;29.20;71.70;;;;;;5035325;28;20033;-58
2022/08/27 11:15:36;;;;;;;3.08;2.17;;;29.20;71.60;;;;;;5035035;28;20029;-57
2022/08/27 11:18:06;;;;;;;2.40;2.20;;;29.20;71.60;;;;;;5035147;28;20017;-57
2022/08/27 11:20:35;;;;;;;4.05;2.42;;;29.20;71.70;;;;;;5034292;28;20047;-57
2022/08/27 11:23:05;;;;;;;2.65;2.30;;;29.20;71.70;;;;;;5034320;28;20037;-57
2022/08/27 11:25:38;;;;;;;2.22;1.98;;;29.20;71.70;;;;;;5034532;28;20018;-57
2022/08/27 11:28:07;;;;;;;2.92;2.25;;;29.20;71.70;;;;;;5034606;28;20029;-57
2022/08/27 11:30:35;;;;;;;3.00;2.15;;;29.20;71.70;;;;;;5034388;28;20028;-57
2022/08/27 11:33:05;;;;;;;3.42;2.63;;;29.20;71.70;;;;;;5034403;28;20064;-57
2022/08/27 11:35:37;;;;;;;2.25;2.05;;;29.20;71.70;;;;;;5034322;28;20025;-57
2022/08/27 11:38:07;;;;;;;3.25;2.50;;;29.20;71.70;;;;;;5034425;28;20025;-52
2022/08/27 11:40:51;;;;;;;2.88;2.58;;;29.20;71.70;;;;;;5033433;28;20478;-59
2022/08/27 11:43:22;;;;;;;6.68;2.90;;;29.20;71.30;;;;;;5046329;28;20025;-58
2022/08/27 11:45:53;;;;;;;5.85;2.97;;;29.20;70.70;;;;;;5029152;28;20056;-57
2022/08/27 11:48:21;;;;;;;8.82;3.20;;;29.20;70.00;;;;;;5016853;28;20028;-56
2022/08/27 11:50:53;;;;;;;7.63;3.20;;;29.00;69.50;;;;;;5016685;28;20079;-58
2022/08/27 11:53:27;;;;;;;6.55;3.47;;;29.00;69.50;;;;;;5016891;28;20126;-57
2022/08/27 11:55:54;;;;;;;5.88;3.30;;;28.90;69.90;;;;;;5044790;28;20085;-57
2022/08/27 11:58:21;;;;;;;4.03;2.92;;;28.80;69.90;;;;;;5029545;28;20025;-55
2022/08/27 12:00:48;;;;;;;6.88;3.47;;;28.80;69.80;;;;;;4997092;28;20025;-56
2022/08/27 12:03:18;;;;;;;4.45;3.10;;;28.80;69.80;;;;;;5028935;28;20036;-57
2022/08/27 12:05:46;;;;;;;4.80;3.42;;;28.70;69.30;;;;;;4996896;28;20029;-57
2022/08/27 12:08:18;;;;;;;4.22;2.97;;;28.60;68.90;;;;;;5013605;28;20875;-57
2022/08/27 12:10:59;;;;;;;4.95;3.42;;;28.60;68.40;;;;;;5014629;28;20117;-56
2022/08/27 12:13:29;;;;;;;3.65;2.25;;;28.60;67.60;;;;;;5000862;28;20044;-56
2022/08/27 12:16:01;;;;;;;5.32;2.75;;;28.60;67.90;;;;;;5000266;28;20071;-57
2022/08/27 12:18:35;;;;;;;7.93;2.83;;;28.70;68.10;;;;;;5016634;28;20029;-56
2022/08/27 12:21:05;;;;;;;5.65;3.35;;;28.70;68.10;;;;;;5001060;28;20013;-56
2022/08/27 12:26:10;;;;;;;6.68;3.20;;;28.80;68.10;;;;;;5001124;28;20021;-57
2022/08/27 12:28:36;;;;;;;6.70;3.53;;;28.90;67.20;;;;;;5000473;28;20387;-58
2022/08/27 12:31:05;;;;;;;5.20;3.30;;;28.90;66.80;;;;;;4999737;28;20029;-57
2022/08/27 12:33:38;;;;;;;5.15;3.70;;;28.90;67.00;;;;;;5016445;28;20120;-58
2022/08/27 12:36:11;;;;;;;4.10;3.30;;;28.90;66.90;;;;;;5016399;28;20105;-57
2022/08/27 12:38:44;;;;;;;4.35;2.92;;;28.90;67.20;;;;;;5016372;28;20021;-57
2022/08/27 12:41:10;;;;;;;4.68;3.30;;;28.90;67.70;;;;;;5016072;28;20018;-57
2022/08/27 12:43:42;;;;;;;5.82;3.95;;;29.00;68.00;;;;;;5016120;28;20035;-58
2022/08/27 12:46:16;;;;;;;5.40;3.58;;;29.00;67.50;;;;;;5016711;28;20029;-57
2022/08/27 12:48:46;;;;;;;7.85;4.22;;;29.10;67.50;;;;;;5016272;28;20116;-56
2022/08/27 12:51:21;;;;;;;6.40;3.83;;;29.10;67.00;;;;;;5032155;28;20025;-59
2022/08/27 12:53:50;;;;;;;5.38;3.83;;;29.20;66.60;;;;;;5015817;28;20041;-56
2022/08/27 12:56:21;;;;;;;6.32;3.65;;;29.20;66.10;;;;;;4999451;28;20383;-57
2022/08/27 12:58:56;;;;;;;7.60;4.78;;;29.30;65.80;;;;;;4999968;28;20474;-56
2022/08/27 13:01:28;;;;;;;4.03;3.30;;;29.30;65.60;;;;;;4999590;28;20033;-57
2022/08/27 13:03:55;;;;;;;6.60;3.15;;;29.40;65.00;;;;;;4999425;28;20053;-57
2022/08/27 13:06:25;;;;;;;4.88;3.38;;;29.40;65.20;;;;;;5015754;28;20022;-57